Time;durP1;ratioP1;P1;durP2;ratioP2;P2;SDS_P1;SDS_P2;PMS_P1;PMS_P2;Temp;Humidity;BMP_temperature;BMP_pressure;BME280_temperature;BME280_humidity;BME280_pressure;Samples;Min_cycle;Max_cycle;Signal;HPM_P1;HPM_P2
2021/12/13 00:02:15;;;;;;;;;;;9.70;99.90;;;;;;5048279;28;20103;-87
2021/12/13 00:05:13;;;;;;;0.88;0.85;;;9.70;99.90;;;;;;5056609;28;20380;-86
2021/12/13 00:07:42;;;;;;;0.70;0.70;;;9.80;99.90;;;;;;5040577;28;20140;-87
2021/12/13 00:10:18;;;;;;;5.35;0.90;;;9.70;99.90;;;;;;5052179;28;20096;-87
2021/12/13 00:12:48;;;;;;;0.52;0.52;;;9.70;99.90;;;;;;5052718;28;20036;-86
2021/12/13 00:15:36;;;;;;;0.60;0.60;;;9.70;99.90;;;;;;5063642;28;20051;-85
2021/12/13 00:18:05;;;;;;;1.30;1.10;;;9.80;99.90;;;;;;5057637;28;20056;-87
2021/12/13 00:20:44;;;;;;;1.55;1.45;;;9.80;99.90;;;;;;5035021;28;20036;-85
2021/12/13 00:23:33;;;;;;;1.98;1.88;;;9.80;99.90;;;;;;5044076;28;20466;-87
2021/12/13 00:26:03;;;;;;;0.52;0.52;;;9.70;99.90;;;;;;5039057;28;20028;-87
2021/12/13 00:28:34;;;;;;;0.65;0.65;;;9.70;99.90;;;;;;5063105;28;20135;-86
2021/12/13 00:31:23;;;;;;;0.80;0.80;;;9.70;99.90;;;;;;5062225;28;20032;-86
2021/12/13 00:34:08;;;;;;;0.68;0.68;;;9.70;99.90;;;;;;5077131;28;20092;-86
2021/12/13 00:36:42;;;;;;;0.80;0.80;;;9.70;99.90;;;;;;5041127;28;20143;-86
2021/12/13 00:39:33;;;;;;;1.83;0.98;;;9.80;99.90;;;;;;5047018;28;20041;-87
2021/12/13 00:42:02;;;;;;;1.55;1.45;;;9.80;99.90;;;;;;5040769;28;20137;-87
2021/12/13 00:44:37;;;;;;;1.13;1.02;;;9.80;99.90;;;;;;5060698;28;20045;-86
2021/12/13 00:47:08;;;;;;;1.35;1.25;;;9.70;99.90;;;;;;5036728;28;20041;-86
2021/12/13 00:49:38;;;;;;;0.60;0.60;;;9.80;99.90;;;;;;5046515;28;20436;-85
2021/12/13 00:52:05;;;;;;;0.80;0.80;;;9.80;99.90;;;;;;5062714;28;20127;-87
2021/12/13 00:54:40;;;;;;;0.75;0.75;;;9.70;99.90;;;;;;5064184;28;20098;-86
2021/12/13 00:57:21;;;;;;;2.53;1.85;;;9.70;99.90;;;;;;5046889;28;20055;-86
2021/12/13 00:59:54;;;;;;;0.70;0.70;;;9.70;99.90;;;;;;5062501;28;20049;-87
2021/12/13 01:02:27;;;;;;;0.80;0.80;;;9.70;99.90;;;;;;5042613;28;20041;-87
2021/12/13 01:04:58;;;;;;;1.15;1.05;;;9.80;99.90;;;;;;5032018;28;20041;-88
2021/12/13 01:07:33;;;;;;;0.75;0.75;;;9.70;99.90;;;;;;5063435;28;20083;-87
2021/12/13 01:10:48;;;;;;;0.80;0.80;;;9.80;99.90;;;;;;5063594;28;20040;-87
2021/12/13 01:13:24;;;;;;;1.85;0.90;;;9.70;99.90;;;;;;5039334;28;20049;-87
2021/12/13 01:15:55;;;;;;;0.80;0.80;;;9.70;99.90;;;;;;5052302;28;20048;-88
2021/12/13 01:18:56;;;;;;;0.80;0.80;;;9.70;99.90;;;;;;5064873;28;20040;-88
2021/12/13 01:21:54;;;;;;;5.15;1.50;;;9.70;99.90;;;;;;5060000;28;20040;-88
2021/12/13 01:24:52;;;;;;;1.15;1.08;;;9.70;99.90;;;;;;5011646;28;20414;-88
2021/12/13 01:27:08;;;;;;;1.42;1.33;;;9.80;99.90;;;;;;5064581;28;20056;-89
2021/12/13 01:29:34;;;;;;;0.60;0.60;;;9.70;99.90;;;;;;5073622;28;20050;-89
2021/12/13 01:32:05;;;;;;;1.75;1.13;;;9.70;99.90;;;;;;5050226;28;20531;-88
2021/12/13 01:34:34;;;;;;;0.82;0.82;;;9.80;99.90;;;;;;5060360;28;20100;-88
2021/12/13 01:37:16;;;;;;;1.88;1.77;;;9.80;99.90;;;;;;5044630;28;20107;-88
2021/12/13 01:39:49;;;;;;;2.60;1.13;;;9.80;99.90;;;;;;5052554;28;20043;-88
2021/12/13 01:42:20;;;;;;;1.13;1.02;;;9.80;99.90;;;;;;5064754;28;20051;-87
2021/12/13 01:44:55;;;;;;;0.60;0.60;;;9.80;99.90;;;;;;5046883;28;20047;-87
2021/12/13 01:47:25;;;;;;;3.15;1.23;;;9.80;99.90;;;;;;5063642;28;20033;-88
2021/12/13 01:49:55;;;;;;;4.22;1.58;;;9.80;99.90;;;;;;5057756;28;20040;-88
2021/12/13 01:52:29;;;;;;;0.98;0.98;;;9.80;99.90;;;;;;5047097;28;20044;-89
2021/12/13 01:54:58;;;;;;;0.90;0.90;;;9.80;99.90;;;;;;5063245;28;20120;-88
2021/12/13 01:57:39;;;;;;;4.80;1.05;;;9.80;99.90;;;;;;5048146;28;20493;-87
2021/12/13 02:00:44;;;;;;;0.93;0.93;;;9.80;99.90;;;;;;5052702;28;20046;-88
2021/12/13 02:03:11;;;;;;;1.42;1.10;;;9.80;99.90;;;;;;5068273;28;20182;-88
2021/12/13 02:05:37;;;;;;;0.80;0.80;;;9.80;99.90;;;;;;5045841;28;20096;-86
2021/12/13 02:08:11;;;;;;;1.13;1.02;;;9.80;99.90;;;;;;5049271;28;20068;-87
2021/12/13 02:10:42;;;;;;;0.85;0.85;;;9.80;99.90;;;;;;5049037;28;20040;-87
2021/12/13 02:13:16;;;;;;;1.35;1.25;;;9.80;99.90;;;;;;5046010;28;20100;-87
2021/12/13 02:18:33;;;;;;;0.70;0.70;;;9.80;99.90;;;;;;5064479;28;20108;-87
2021/12/13 02:21:06;;;;;;;0.95;0.95;;;9.80;99.90;;;;;;5063237;28;20127;-87
2021/12/13 02:23:37;;;;;;;0.82;0.82;;;9.80;99.90;;;;;;5046739;28;20078;-87
2021/12/13 02:26:03;;;;;;;0.93;0.93;;;9.80;99.90;;;;;;5061188;28;20036;-87
2021/12/13 02:28:35;;;;;;;0.70;0.70;;;9.80;99.90;;;;;;5056281;28;20440;-86
2021/12/13 02:31:10;;;;;;;0.77;0.77;;;9.80;99.90;;;;;;5038616;28;20056;-88
2021/12/13 02:33:40;;;;;;;0.75;0.75;;;9.80;99.90;;;;;;5045906;28;20044;-87
2021/12/13 02:36:15;;;;;;;1.55;1.45;;;9.80;99.90;;;;;;5048703;28;20049;-88
2021/12/13 02:38:46;;;;;;;0.73;0.73;;;9.80;99.90;;;;;;5051326;28;20044;-88
2021/12/13 02:41:12;;;;;;;0.75;0.75;;;9.80;99.90;;;;;;5051851;28;20477;-86
2021/12/13 02:43:43;;;;;;;1.75;1.40;;;9.80;99.90;;;;;;5049185;28;20090;-86
2021/12/13 02:46:09;;;;;;;2.42;1.63;;;9.80;99.90;;;;;;5067878;28;20040;-88
2021/12/13 02:48:49;;;;;;;1.85;1.38;;;9.80;99.90;;;;;;5067543;28;20120;-88
2021/12/13 02:51:29;;;;;;;2.50;1.60;;;9.80;99.90;;;;;;5046544;28;20041;-87
2021/12/13 02:54:06;;;;;;;0.75;0.75;;;9.80;99.90;;;;;;5058903;28;20043;-88
2021/12/13 02:57:01;;;;;;;0.75;0.73;;;9.70;99.90;;;;;;5051192;28;20048;-88
2021/12/13 02:59:29;;;;;;;;;;;9.70;99.90;;;;;;5056548;28;20459;-87
2021/12/13 03:02:07;;;;;;;1.05;1.00;;;9.70;99.90;;;;;;5050239;28;20256;-87
2021/12/13 03:04:33;;;;;;;0.85;0.85;;;9.70;99.90;;;;;;5060686;28;20040;-88
2021/12/13 03:07:23;;;;;;;5.20;1.40;;;9.70;99.90;;;;;;5053592;28;20110;-88
2021/12/13 03:09:53;;;;;;;2.47;1.65;;;9.60;99.90;;;;;;5052441;28;20622;-88
2021/12/13 03:12:21;;;;;;;0.98;0.98;;;9.60;99.90;;;;;;5057804;28;20091;-89
2021/12/13 03:14:56;;;;;;;2.67;1.92;;;9.60;99.90;;;;;;5055189;28;20100;-89
2021/12/13 03:17:38;;;;;;;1.60;1.50;;;9.60;99.90;;;;;;5046990;28;20036;-88
2021/12/13 03:20:19;;;;;;;0.95;0.95;;;9.60;99.90;;;;;;5077551;28;20383;-89
2021/12/13 03:23:21;;;;;;;1.45;1.17;;;9.60;99.90;;;;;;5078010;28;20044;-87
2021/12/13 03:26:21;;;;;;;0.85;0.85;;;9.60;99.90;;;;;;5002876;28;20095;-89
2021/12/13 03:29:11;;;;;;;0.82;0.82;;;9.60;99.90;;;;;;5069396;28;20083;-88
2021/12/13 03:31:43;;;;;;;0.80;0.80;;;9.60;99.90;;;;;;5061890;28;20080;-88
2021/12/13 03:34:10;;;;;;;0.93;0.93;;;9.60;99.90;;;;;;5048747;28;20066;-88
2021/12/13 03:36:55;;;;;;;1.00;0.90;;;9.60;99.90;;;;;;5054775;28;20055;-89
2021/12/13 03:39:32;;;;;;;0.80;0.80;;;9.60;99.90;;;;;;5050263;28;20036;-89
2021/12/13 03:42:00;;;;;;;0.88;0.88;;;9.60;99.90;;;;;;5049489;28;20123;-89
2021/12/13 03:44:39;;;;;;;1.23;1.13;;;9.60;99.90;;;;;;5064745;28;20468;-89
2021/12/13 03:47:12;;;;;;;0.80;0.80;;;9.60;99.90;;;;;;5079716;28;20040;-87
2021/12/13 03:49:46;;;;;;;29.70;1.52;;;9.50;99.90;;;;;;5071982;28;20100;-86
2021/12/13 03:52:12;;;;;;;;;;;9.50;99.90;;;;;;5058506;28;20115;-87
2021/12/13 03:54:40;;;;;;;0.80;0.80;;;9.50;99.90;;;;;;5049261;28;21300;-89
2021/12/13 03:57:06;;;;;;;0.60;0.60;;;9.50;99.90;;;;;;5053773;28;20051;-88
2021/12/13 03:59:34;;;;;;;0.73;0.73;;;9.40;99.90;;;;;;5055486;28;20045;-88
2021/12/13 04:02:05;;;;;;;0.95;0.93;;;9.40;99.90;;;;;;5049739;28;20044;-89
2021/12/13 04:04:33;;;;;;;1.27;1.23;;;9.50;99.90;;;;;;5060761;28;20036;-87
2021/12/13 04:07:12;;;;;;;0.70;0.70;;;9.40;99.90;;;;;;5064777;28;20048;-89
2021/12/13 04:09:43;;;;;;;0.60;0.60;;;9.40;99.90;;;;;;5052073;28;20064;-89
2021/12/13 04:12:11;;;;;;;0.60;0.60;;;9.40;99.90;;;;;;5052460;28;20051;-89
2021/12/13 04:14:47;;;;;;;0.70;0.70;;;9.30;99.90;;;;;;5052856;28;20071;-89
2021/12/13 04:17:36;;;;;;;0.70;0.70;;;9.40;99.90;;;;;;5064938;28;20163;-89
2021/12/13 04:20:08;;;;;;;1.15;0.98;;;9.40;99.90;;;;;;5054685;28;20064;-90
2021/12/13 04:22:37;;;;;;;0.60;0.60;;;9.30;99.90;;;;;;5042766;28;20067;-89
2021/12/13 04:25:12;;;;;;;0.70;0.70;;;9.30;99.90;;;;;;5041486;28;20125;-89
2021/12/13 04:27:53;;;;;;;0.40;0.40;;;9.20;99.90;;;;;;5059175;28;20041;-90
2021/12/13 04:30:35;;;;;;;0.90;0.90;;;9.30;99.90;;;;;;5057565;28;20048;-88
2021/12/13 04:33:08;;;;;;;0.60;0.60;;;9.20;99.90;;;;;;5069263;28;20055;-89
2021/12/13 04:35:34;;;;;;;1.15;1.13;;;9.20;99.90;;;;;;5043820;28;20079;-89
2021/12/13 04:38:03;;;;;;;0.60;0.60;;;9.20;99.90;;;;;;5058513;28;20127;-89
2021/12/13 04:40:33;;;;;;;0.60;0.60;;;9.20;99.90;;;;;;5048839;28;20670;-89
2021/12/13 04:43:18;;;;;;;0.60;0.60;;;9.10;99.90;;;;;;5069891;28;20068;-88
2021/12/13 04:45:48;;;;;;;0.70;0.70;;;9.10;99.90;;;;;;5045085;28;20031;-89
2021/12/13 04:48:20;;;;;;;0.90;0.80;;;9.10;99.90;;;;;;5052139;28;20039;-88
2021/12/13 04:50:53;;;;;;;2.30;1.00;;;9.10;99.90;;;;;;5048738;28;20071;-88
2021/12/13 04:53:29;;;;;;;1.65;0.93;;;9.00;99.90;;;;;;5040133;28;20036;-89
2021/12/13 04:55:58;;;;;;;0.70;0.70;;;9.00;99.90;;;;;;5060307;28;20071;-89
2021/12/13 04:58:24;;;;;;;0.70;0.70;;;9.00;99.90;;;;;;5050058;28;20045;-88
2021/12/13 05:00:55;;;;;;;0.55;0.55;;;9.00;99.90;;;;;;5066016;28;20051;-88
2021/12/13 05:03:25;;;;;;;0.80;0.80;;;9.00;99.90;;;;;;5039239;28;20036;-88
2021/12/13 05:05:51;;;;;;;0.60;0.60;;;9.00;99.90;;;;;;5049925;28;20045;-89
2021/12/13 05:08:19;;;;;;;0.55;0.55;;;9.00;99.90;;;;;;5069669;28;20044;-89
2021/12/13 05:10:48;;;;;;;0.60;0.60;;;9.00;99.90;;;;;;5077159;28;20058;-90
2021/12/13 05:13:19;;;;;;;0.50;0.50;;;9.00;99.90;;;;;;5054164;28;20134;-89
2021/12/13 05:15:56;;;;;;;0.60;0.60;;;9.00;99.90;;;;;;5063910;28;20048;-89
2021/12/13 05:18:27;;;;;;;0.70;0.70;;;9.00;99.90;;;;;;5048038;28;20124;-90
2021/12/13 05:21:08;;;;;;;0.63;0.63;;;9.00;99.90;;;;;;5052357;28;20044;-88
2021/12/13 05:23:47;;;;;;;0.60;0.60;;;9.00;99.90;;;;;;5041849;28;20136;-88
2021/12/13 05:26:27;;;;;;;0.52;0.52;;;9.00;99.90;;;;;;5050906;28;20044;-88
2021/12/13 05:28:53;;;;;;;0.52;0.52;;;9.00;99.90;;;;;;5041276;28;20040;-87
2021/12/13 05:31:23;;;;;;;0.50;0.50;;;9.00;99.90;;;;;;5063317;28;20040;-87
2021/12/13 05:33:56;;;;;;;0.60;0.60;;;9.00;99.90;;;;;;5063489;28;20108;-88
2021/12/13 05:36:27;;;;;;;0.60;0.60;;;9.00;99.90;;;;;;5050268;28;20123;-88
2021/12/13 05:39:11;;;;;;;0.55;0.55;;;9.00;99.90;;;;;;5056130;28;20454;-88
2021/12/13 05:41:38;;;;;;;0.60;0.60;;;9.00;99.90;;;;;;5050754;28;20392;-88
2021/12/13 05:44:11;;;;;;;0.68;0.68;;;9.00;99.90;;;;;;5090725;28;20036;-88
2021/12/13 05:46:41;;;;;;;0.80;0.77;;;9.00;99.90;;;;;;5046288;28;20041;-88
2021/12/13 05:49:20;;;;;;;0.60;0.60;;;9.00;99.90;;;;;;5047989;28;20089;-87
2021/12/13 05:51:49;;;;;;;0.60;0.60;;;9.00;99.90;;;;;;5047993;28;20626;-88
2021/12/13 05:54:30;;;;;;;1.63;0.98;;;9.00;99.90;;;;;;5062590;28;20093;-88
2021/12/13 05:57:11;;;;;;;0.70;0.70;;;9.00;99.90;;;;;;5046397;28;20041;-87
2021/12/13 05:59:50;;;;;;;0.50;0.50;;;9.00;99.90;;;;;;5062271;28;20037;-87
2021/12/13 06:02:31;;;;;;;0.57;0.57;;;9.00;99.90;;;;;;5062000;28;20051;-88
2021/12/13 06:05:13;;;;;;;0.68;0.68;;;9.00;99.90;;;;;;5062494;28;20059;-88
2021/12/13 06:07:40;;;;;;;1.00;0.68;;;9.00;99.90;;;;;;5038305;28;20037;-88
2021/12/13 06:10:18;;;;;;;0.93;0.73;;;9.00;99.90;;;;;;5063477;28;20048;-87
2021/12/13 06:12:46;;;;;;;0.70;0.70;;;9.00;99.90;;;;;;5044214;28;20052;-88
2021/12/13 06:15:15;;;;;;;0.65;0.65;;;9.00;99.90;;;;;;5035480;28;20044;-88
2021/12/13 06:17:53;;;;;;;0.82;0.82;;;8.90;99.90;;;;;;5044501;28;20524;-87
2021/12/13 06:20:37;;;;;;;0.50;0.50;;;8.90;99.90;;;;;;5046069;28;20305;-88
2021/12/13 06:23:06;;;;;;;0.77;0.77;;;8.90;99.90;;;;;;5035248;28;20040;-87
2021/12/13 06:25:32;;;;;;;0.80;0.80;;;8.90;99.90;;;;;;5057892;28;20044;-88
2021/12/13 06:28:02;;;;;;;0.75;0.75;;;8.90;99.90;;;;;;5041930;28;20041;-87
2021/12/13 06:30:31;;;;;;;0.50;0.50;;;8.90;99.90;;;;;;5038234;28;20040;-87
2021/12/13 06:33:01;;;;;;;0.50;0.50;;;8.90;99.90;;;;;;5046017;28;20045;-88
2021/12/13 06:35:36;;;;;;;0.60;0.60;;;8.90;99.90;;;;;;5062812;28;20131;-89
2021/12/13 06:38:24;;;;;;;0.70;0.70;;;8.90;99.90;;;;;;5063434;28;20063;-89
2021/12/13 06:40:57;;;;;;;0.80;0.80;;;8.90;99.90;;;;;;5057912;28;20055;-88
2021/12/13 06:43:33;;;;;;;0.60;0.60;;;8.90;99.90;;;;;;5045530;28;20049;-89
2021/12/13 06:46:00;;;;;;;0.80;0.80;;;8.90;99.90;;;;;;5070218;28;20062;-88
2021/12/13 06:49:18;;;;;;;0.68;0.68;;;8.90;99.90;;;;;;5065362;28;20038;-88
2021/12/13 06:51:58;;;;;;;0.77;0.77;;;8.90;99.90;;;;;;5058904;28;20052;-89
2021/12/13 06:54:42;;;;;;;1.00;1.00;;;8.90;99.90;;;;;;5054890;28;20060;-88
2021/12/13 06:57:35;;;;;;;0.50;0.50;;;8.90;99.90;;;;;;5049451;28;20080;-89
2021/12/13 07:00:09;;;;;;;0.60;0.60;;;8.80;99.90;;;;;;5062057;28;20104;-88
2021/12/13 07:03:00;;;;;;;0.73;0.73;;;8.80;99.90;;;;;;5045356;28;20072;-83
2021/12/13 07:05:36;;;;;;;0.60;0.60;;;8.80;99.90;;;;;;5072098;28;20071;-86
2021/12/13 07:08:06;;;;;;;1.38;0.70;;;8.80;99.90;;;;;;5036870;28;20041;-84
2021/12/13 07:10:45;;;;;;;0.73;0.73;;;8.80;99.90;;;;;;5060140;28;20052;-84
2021/12/13 07:13:19;;;;;;;0.60;0.60;;;8.80;99.90;;;;;;5061930;28;20044;-84
2021/12/13 07:15:50;;;;;;;0.80;0.80;;;8.80;99.90;;;;;;5043951;28;20181;-83
2021/12/13 07:18:29;;;;;;;1.08;1.00;;;8.80;99.90;;;;;;5045763;28;20063;-83
2021/12/13 07:21:01;;;;;;;2.40;1.75;;;8.80;99.90;;;;;;5059188;28;20109;-84
2021/12/13 07:23:28;;;;;;;1.80;1.67;;;8.80;99.90;;;;;;5067086;28;20104;-83
2021/12/13 07:25:55;;;;;;;0.60;0.60;;;8.80;99.90;;;;;;5060784;28;20047;-84
2021/12/13 07:28:37;;;;;;;0.90;0.85;;;8.80;99.90;;;;;;5060638;28;20047;-84
2021/12/13 07:31:08;;;;;;;0.82;0.82;;;8.80;99.90;;;;;;5062533;28;20048;-83
2021/12/13 07:33:40;;;;;;;3.20;1.10;;;8.80;99.90;;;;;;5083154;28;20059;-83
2021/12/13 07:36:25;;;;;;;0.93;0.73;;;8.80;99.90;;;;;;5059407;28;20575;-84
2021/12/13 07:39:01;;;;;;;1.10;0.90;;;8.80;99.90;;;;;;5049125;28;20048;-84
2021/12/13 07:41:50;;;;;;;0.60;0.60;;;8.80;99.90;;;;;;5064876;28;20051;-84
2021/12/13 07:44:41;;;;;;;0.70;0.70;;;8.80;99.90;;;;;;5064997;28;20119;-85
2021/12/13 07:47:24;;;;;;;0.80;0.80;;;8.80;99.90;;;;;;5044424;28;20391;-85
2021/12/13 07:49:58;;;;;;;0.95;0.85;;;8.80;99.90;;;;;;5047589;28;20032;-85
2021/12/13 07:52:38;;;;;;;0.77;0.77;;;8.80;99.90;;;;;;5060797;28;20036;-84
2021/12/13 07:55:21;;;;;;;0.73;0.73;;;8.80;99.90;;;;;;5048076;28;20110;-87
2021/12/13 07:57:48;;;;;;;1.02;1.02;;;8.80;99.90;;;;;;5047804;28;20044;-85
2021/12/13 08:00:35;;;;;;;0.60;0.60;;;8.80;99.90;;;;;;5048025;28;20040;-85
2021/12/13 08:03:08;;;;;;;0.60;0.60;;;8.80;99.90;;;;;;5084121;28;20037;-84
2021/12/13 08:05:38;;;;;;;;;;;8.80;99.90;;;;;;5041351;28;20033;-84
2021/12/13 08:08:06;;;;;;;0.65;0.65;;;8.80;99.90;;;;;;5048107;28;20469;-84
2021/12/13 08:10:39;;;;;;;0.70;0.70;;;8.80;99.90;;;;;;5067469;28;20040;-84
2021/12/13 08:13:13;;;;;;;2.67;1.10;;;8.80;99.90;;;;;;5047492;28;20063;-84
2021/12/13 08:15:56;;;;;;;0.68;0.68;;;8.80;99.90;;;;;;5061335;28;20669;-85
2021/12/13 08:18:43;;;;;;;0.68;0.68;;;8.80;99.90;;;;;;5056743;28;20049;-84
2021/12/13 08:21:26;;;;;;;1.17;1.10;;;8.80;99.90;;;;;;5046077;28;20101;-84
2021/12/13 08:23:59;;;;;;;0.68;0.68;;;8.80;99.90;;;;;;5046960;28;20033;-85
2021/12/13 08:26:37;;;;;;;2.00;1.60;;;8.90;99.90;;;;;;5049237;28;20080;-84
2021/12/13 08:29:27;;;;;;;0.50;0.50;;;8.90;99.90;;;;;;5047308;28;20037;-84
2021/12/13 08:31:54;;;;;;;0.63;0.63;;;8.90;99.90;;;;;;5043678;28;20048;-84
2021/12/13 08:34:34;;;;;;;0.60;0.60;;;8.90;99.90;;;;;;5048076;28;20556;-84
2021/12/13 08:37:15;;;;;;;0.50;0.50;;;8.90;99.90;;;;;;5058930;28;20044;-84
2021/12/13 08:39:42;;;;;;;2.35;1.60;;;8.90;99.90;;;;;;5063290;28;20396;-85
2021/12/13 08:42:16;;;;;;;0.95;0.95;;;8.90;99.90;;;;;;5046125;28;20047;-83
2021/12/13 08:44:52;;;;;;;2.28;2.08;;;8.90;99.90;;;;;;5056750;28;20055;-84
2021/12/13 08:47:22;;;;;;;0.80;0.80;;;9.00;99.90;;;;;;5058775;28;20150;-83
2021/12/13 08:49:53;;;;;;;0.65;0.65;;;9.00;99.90;;;;;;5054544;28;20048;-83
2021/12/13 08:52:27;;;;;;;0.70;0.70;;;9.00;99.90;;;;;;5064469;28;20037;-84
2021/12/13 08:55:16;;;;;;;0.82;0.82;;;9.00;99.90;;;;;;5046803;28;20051;-85
2021/12/13 08:58:17;;;;;;;0.70;0.70;;;9.00;99.90;;;;;;5063983;28;20044;-85
2021/12/13 09:00:59;;;;;;;0.60;0.60;;;9.10;99.90;;;;;;5057344;28;20098;-85
2021/12/13 09:03:45;;;;;;;2.05;0.93;;;9.00;99.90;;;;;;5051056;28;20050;-86
2021/12/13 09:06:16;;;;;;;0.93;0.93;;;9.10;99.90;;;;;;5062574;28;20045;-85
2021/12/13 09:09:04;;;;;;;0.82;0.82;;;9.10;99.90;;;;;;5052102;28;20055;-86
2021/12/13 09:11:54;;;;;;;1.52;1.42;;;9.10;99.90;;;;;;5052829;28;20108;-86
2021/12/13 09:14:28;;;;;;;1.08;0.98;;;9.20;99.90;;;;;;5066102;28;20037;-85
2021/12/13 09:17:14;;;;;;;1.27;0.85;;;9.20;99.90;;;;;;5062285;28;20044;-85
2021/12/13 09:19:47;;;;;;;0.82;0.82;;;9.20;99.90;;;;;;5042127;28;20048;-84
2021/12/13 09:22:31;;;;;;;1.45;1.23;;;9.20;99.90;;;;;;5067399;28;20105;-84
2021/12/13 09:25:04;;;;;;;0.77;0.77;;;9.20;99.90;;;;;;5046134;28;20067;-84
2021/12/13 09:27:56;;;;;;;0.60;0.60;;;9.20;99.90;;;;;;5044720;28;20059;-84
2021/12/13 09:30:33;;;;;;;0.82;0.82;;;9.30;99.90;;;;;;5077510;28;20055;-83
2021/12/13 09:33:20;;;;;;;1.40;0.73;;;9.30;99.90;;;;;;5058726;28;20036;-83
2021/12/13 09:35:48;;;;;;;1.23;1.13;;;9.30;99.90;;;;;;5047130;28;20633;-83
2021/12/13 09:38:17;;;;;;;0.70;0.70;;;9.40;99.90;;;;;;5065892;28;20048;-86
2021/12/13 09:40:44;;;;;;;2.00;1.02;;;9.40;99.90;;;;;;5062550;28;20095;-85
2021/12/13 09:43:09;;;;;;;0.98;0.98;;;9.40;99.90;;;;;;5047489;28;20049;-82
2021/12/13 09:45:48;;;;;;;0.70;0.70;;;9.40;99.90;;;;;;5078073;28;20044;-82
2021/12/13 09:48:26;;;;;;;0.80;0.80;;;9.40;99.90;;;;;;5063250;28;20036;-83
2021/12/13 09:50:56;;;;;;;1.13;1.02;;;9.40;99.90;;;;;;5062120;28;20044;-84
2021/12/13 09:53:26;;;;;;;1.20;1.10;;;9.40;99.90;;;;;;5050417;28;20036;-84
2021/12/13 09:55:53;;;;;;;1.35;1.13;;;9.50;99.90;;;;;;5044997;28;20520;-85
2021/12/13 09:58:25;;;;;;;2.38;1.13;;;9.40;99.90;;;;;;5064442;28;20076;-84
2021/12/13 10:00:53;;;;;;;2.33;1.02;;;9.50;99.90;;;;;;5063848;28;20048;-84
2021/12/13 10:03:29;;;;;;;1.10;1.00;;;9.50;99.90;;;;;;5064666;28;20036;-86
2021/12/13 10:06:03;;;;;;;0.82;0.80;;;9.40;99.90;;;;;;5046050;28;20044;-87
2021/12/13 10:08:57;;;;;;;1.40;1.10;;;9.50;99.90;;;;;;5064519;28;20075;-87
2021/12/13 10:11:31;;;;;;;1.60;1.50;;;9.50;99.90;;;;;;5048858;28;20101;-84
2021/12/13 10:13:58;;;;;;;1.15;1.05;;;9.50;99.90;;;;;;5064107;28;20047;-84
2021/12/13 10:16:31;;;;;;;0.88;0.88;;;9.50;99.90;;;;;;5061379;28;20036;-84
2021/12/13 10:18:58;;;;;;;0.83;0.83;;;9.50;99.90;;;;;;5062900;28;20052;-82
2021/12/13 10:21:32;;;;;;;1.42;1.33;;;9.50;99.90;;;;;;5062625;28;20320;-85
2021/12/13 10:24:05;;;;;;;0.88;0.82;;;9.50;99.90;;;;;;5045091;28;20040;-85
2021/12/13 10:26:38;;;;;;;0.80;0.80;;;9.50;99.90;;;;;;5047394;28;20528;-86
2021/12/13 10:29:10;;;;;;;0.65;0.65;;;9.60;99.90;;;;;;5049132;28;20704;-85
2021/12/13 10:31:53;;;;;;;1.25;1.15;;;9.60;99.90;;;;;;5047539;28;20041;-84
2021/12/13 10:34:26;;;;;;;0.93;0.90;;;9.60;99.90;;;;;;5066040;28;20527;-86
2021/12/13 10:36:58;;;;;;;0.70;0.70;;;9.60;99.90;;;;;;5063298;28;20055;-87
2021/12/13 10:39:31;;;;;;;0.60;0.60;;;9.60;99.90;;;;;;5046273;28;20082;-88
2021/12/13 10:42:00;;;;;;;0.70;0.70;;;9.60;99.90;;;;;;5047991;28;20115;-87
2021/12/13 10:44:29;;;;;;;1.85;1.65;;;9.70;99.90;;;;;;5046668;28;20049;-86
2021/12/13 10:47:09;;;;;;;1.00;0.93;;;9.70;99.90;;;;;;5062073;28;20111;-87
2021/12/13 10:49:39;;;;;;;1.45;1.35;;;9.80;99.90;;;;;;5040836;28;20037;-86
2021/12/13 10:52:16;;;;;;;0.90;0.85;;;9.80;99.90;;;;;;5080760;28;20071;-88
2021/12/13 10:54:46;;;;;;;1.73;1.63;;;9.80;99.90;;;;;;5049423;28;20075;-90
2021/12/13 10:57:20;;;;;;;0.98;0.98;;;9.80;99.90;;;;;;5067405;28;20048;-88
2021/12/13 10:59:48;;;;;;;1.20;1.13;;;9.80;99.90;;;;;;5063929;28;20043;-89
2021/12/13 11:02:20;;;;;;;0.80;0.80;;;9.80;99.90;;;;;;5047286;28;20098;-88
2021/12/13 11:04:55;;;;;;;0.70;0.70;;;9.80;99.90;;;;;;5048952;28;20040;-87
2021/12/13 11:07:21;;;;;;;2.15;1.42;;;9.80;99.90;;;;;;5052200;28;20051;-89
2021/12/13 11:09:49;;;;;;;1.50;1.40;;;9.80;99.90;;;;;;5052610;28;20120;-87
2021/12/13 11:12:21;;;;;;;3.72;2.67;;;9.90;99.90;;;;;;5064204;28;20078;-87
2021/12/13 11:14:50;;;;;;;0.80;0.80;;;9.90;99.90;;;;;;5053069;28;20045;-85
2021/12/13 11:17:20;;;;;;;0.68;0.68;;;9.90;99.90;;;;;;5060831;28;20044;-86
2021/12/13 11:19:49;;;;;;;1.35;1.10;;;9.90;99.90;;;;;;5068282;28;20798;-86
2021/12/13 11:22:19;;;;;;;1.65;1.05;;;9.90;99.90;;;;;;5067060;28;20863;-86
2021/12/13 11:24:50;;;;;;;1.35;1.25;;;9.90;99.90;;;;;;5067111;28;20047;-86
2021/12/13 11:27:20;;;;;;;1.27;1.15;;;9.90;99.90;;;;;;5052630;28;20036;-85
2021/12/13 11:29:48;;;;;;;1.48;1.38;;;9.90;99.90;;;;;;5064056;28;20129;-84
2021/12/13 11:32:39;;;;;;;3.40;1.35;;;10.00;99.90;;;;;;5033980;28;20048;-84
2021/12/13 11:35:08;;;;;;;1.83;1.63;;;10.00;99.90;;;;;;5048761;28;20108;-84
2021/12/13 11:38:14;;;;;;;1.60;1.45;;;10.00;99.90;;;;;;5073513;28;20063;-85
2021/12/13 11:41:16;;;;;;;0.82;0.82;;;10.00;99.90;;;;;;5065940;28;20385;-86
2021/12/13 11:44:05;;;;;;;0.60;0.60;;;10.00;99.90;;;;;;5081421;28;20059;-84
2021/12/13 11:47:03;;;;;;;1.58;1.48;;;10.10;99.90;;;;;;5048721;28;20060;-85
2021/12/13 11:50:05;;;;;;;1.65;1.48;;;10.10;99.90;;;;;;5063452;28;20139;-87
2021/12/13 11:52:46;;;;;;;2.67;2.47;;;10.10;99.90;;;;;;5064384;28;20075;-84
2021/12/13 11:55:47;;;;;;;1.33;1.00;;;10.20;99.90;;;;;;5051801;28;20143;-86
2021/12/13 11:58:31;;;;;;;0.65;0.65;;;10.20;99.90;;;;;;5048674;28;20037;-86
2021/12/13 12:01:27;;;;;;;2.15;1.95;;;10.20;99.90;;;;;;5048079;28;20120;-87
2021/12/13 12:04:17;;;;;;;0.80;0.80;;;10.20;99.90;;;;;;5071024;28;20045;-84
2021/12/13 12:07:08;;;;;;;2.28;2.08;;;10.20;99.90;;;;;;5065085;28;20449;-85
2021/12/13 12:10:16;;;;;;;1.65;1.10;;;10.30;99.90;;;;;;5047729;28;20056;-87
2021/12/13 12:13:02;;;;;;;8.93;1.15;;;10.30;99.90;;;;;;5057116;28;20040;-86
2021/12/13 12:15:28;;;;;;;0.95;0.93;;;10.30;99.90;;;;;;5047301;28;20072;-87
2021/12/13 12:17:58;;;;;;;1.42;1.33;;;10.30;99.90;;;;;;5045936;28;20040;-85
2021/12/13 12:20:28;;;;;;;0.80;0.80;;;10.30;99.90;;;;;;5052343;28;20072;-85
2021/12/13 12:23:06;;;;;;;0.85;0.85;;;10.20;99.90;;;;;;5061639;28;20050;-84
2021/12/13 12:25:34;;;;;;;1.80;1.52;;;10.30;99.90;;;;;;5064533;28;20048;-86
2021/12/13 12:28:13;;;;;;;0.75;0.75;;;10.20;99.90;;;;;;5047860;28;20468;-85
2021/12/13 12:30:46;;;;;;;0.95;0.90;;;10.10;99.90;;;;;;5054029;28;20040;-86
2021/12/13 12:33:23;;;;;;;0.70;0.70;;;10.10;99.90;;;;;;5047303;28;20074;-87
2021/12/13 12:35:50;;;;;;;1.85;1.58;;;10.10;99.90;;;;;;5063115;28;20049;-87
2021/12/13 12:38:34;;;;;;;4.30;2.40;;;10.10;99.90;;;;;;5048692;28;20079;-87
2021/12/13 12:41:05;;;;;;;;;;;10.00;99.90;;;;;;5075913;28;20044;-89
2021/12/13 12:43:35;;;;;;;1.42;1.30;;;10.00;99.90;;;;;;5053524;28;19920;-88
2021/12/13 12:46:06;;;;;;;1.45;1.35;;;10.00;99.90;;;;;;5067588;28;20142;-88
2021/12/13 12:48:38;;;;;;;2.40;0.98;;;10.00;99.90;;;;;;5048123;28;20104;-89
2021/12/13 12:51:19;;;;;;;1.23;1.23;;;10.00;99.90;;;;;;5047513;28;20060;-87
2021/12/13 12:53:50;;;;;;;1.23;1.13;;;10.00;99.90;;;;;;5064517;28;20055;-87
2021/12/13 12:56:55;;;;;;;1.50;1.40;;;9.90;99.90;;;;;;5062896;28;20070;-87
2021/12/13 12:59:27;;;;;;;0.77;0.77;;;9.90;99.90;;;;;;5050657;28;20086;-86
2021/12/13 13:02:14;;;;;;;0.70;0.70;;;9.90;99.90;;;;;;5081914;28;20418;-89
2021/12/13 13:04:55;;;;;;;0.60;0.60;;;9.90;99.90;;;;;;5052347;28;20077;-90
2021/12/13 13:07:27;;;;;;;0.90;0.90;;;9.90;99.90;;;;;;5049825;28;20094;-90
2021/12/13 13:09:55;;;;;;;0.90;0.90;;;9.90;99.90;;;;;;5053209;28;20052;-89
2021/12/13 13:12:30;;;;;;;1.30;1.20;;;10.00;99.90;;;;;;5061210;28;20047;-90
2021/12/13 13:15:00;;;;;;;0.90;0.82;;;10.00;99.90;;;;;;5047507;28;20056;-88
2021/12/13 13:17:30;;;;;;;1.10;1.00;;;10.00;99.90;;;;;;5048704;28;20044;-89
2021/12/13 13:20:05;;;;;;;1.02;0.90;;;10.00;99.90;;;;;;5047015;28;20036;-89
2021/12/13 13:22:36;;;;;;;1.65;1.40;;;10.00;99.90;;;;;;5043836;28;20037;-89
2021/12/13 13:25:13;;;;;;;2.58;2.25;;;10.10;99.90;;;;;;5047128;28;20094;-90
2021/12/13 13:27:39;;;;;;;0.55;0.55;;;10.00;99.90;;;;;;5046015;28;20036;-90
2021/12/13 13:30:11;;;;;;;0.82;0.82;;;10.00;99.90;;;;;;5064892;28;20090;-90
2021/12/13 13:32:37;;;;;;;1.63;1.10;;;10.00;99.90;;;;;;5048885;28;20044;-89
2021/12/13 13:35:06;;;;;;;0.98;0.95;;;9.90;99.90;;;;;;5047741;28;20037;-90
2021/12/13 13:37:36;;;;;;;0.73;0.73;;;9.80;99.90;;;;;;5049057;28;20124;-91
2021/12/13 13:40:11;;;;;;;1.10;0.82;;;9.90;99.90;;;;;;5051280;28;20032;-91
2021/12/13 13:43:14;;;;;;;0.60;0.60;;;9.90;99.90;;;;;;5046643;28;20068;-91
2021/12/13 13:45:53;;;;;;;0.70;0.70;;;9.80;99.90;;;;;;5053104;28;20040;-90
2021/12/13 13:48:27;;;;;;;0.90;0.90;;;9.90;99.90;;;;;;5064105;28;20040;-89